sensor_id;sensor_type;location;lat;lon;timestamp;P1;durP1;ratioP1;P2;durP2;ratioP2
8161;SDS011;16778;48.154;15.094;2023-06-05T00:01:02;2.10;;;1.50;;
8161;SDS011;16778;48.154;15.094;2023-06-05T00:03:28;1.80;;;1.23;;
8161;SDS011;16778;48.154;15.094;2023-06-05T00:05:54;3.33;;;1.50;;
8161;SDS011;16778;48.154;15.094;2023-06-05T00:08:20;1.60;;;1.20;;
8161;SDS011;16778;48.154;15.094;2023-06-05T00:10:46;2.63;;;1.30;;
8161;SDS011;16778;48.154;15.094;2023-06-05T00:13:12;1.80;;;1.60;;
8161;SDS011;16778;48.154;15.094;2023-06-05T00:15:37;3.33;;;1.70;;
8161;SDS011;16778;48.154;15.094;2023-06-05T00:18:03;2.33;;;1.10;;
8161;SDS011;16778;48.154;15.094;2023-06-05T00:20:29;1.37;;;1.20;;
8161;SDS011;16778;48.154;15.094;2023-06-05T00:22:55;2.80;;;1.63;;
8161;SDS011;16778;48.154;15.094;2023-06-05T00:25:20;1.93;;;1.30;;
8161;SDS011;16778;48.154;15.094;2023-06-05T00:27:46;1.70;;;1.33;;
8161;SDS011;16778;48.154;15.094;2023-06-05T00:30:12;1.73;;;1.20;;
8161;SDS011;16778;48.154;15.094;2023-06-05T00:32:39;1.33;;;1.17;;
8161;SDS011;16778;48.154;15.094;2023-06-05T00:35:05;3.53;;;1.00;;
8161;SDS011;16778;48.154;15.094;2023-06-05T00:37:32;1.60;;;1.17;;
8161;SDS011;16778;48.154;15.094;2023-06-05T00:39:58;1.97;;;1.37;;
8161;SDS011;16778;48.154;15.094;2023-06-05T00:42:25;2.40;;;1.07;;
8161;SDS011;16778;48.154;15.094;2023-06-05T00:44:51;1.50;;;1.33;;
8161;SDS011;16778;48.154;15.094;2023-06-05T00:47:17;1.60;;;1.00;;
8161;SDS011;16778;48.154;15.094;2023-06-05T00:49:43;2.13;;;1.40;;
8161;SDS011;16778;48.154;15.094;2023-06-05T00:52:09;1.40;;;1.30;;
8161;SDS011;16778;48.154;15.094;2023-06-05T00:54:35;1.70;;;1.00;;
8161;SDS011;16778;48.154;15.094;2023-06-05T00:57:01;2.00;;;1.33;;
8161;SDS011;16778;48.154;15.094;2023-06-05T00:59:27;1.93;;;1.60;;
8161;SDS011;16778;48.154;15.094;2023-06-05T01:01:54;1.93;;;1.43;;
8161;SDS011;16778;48.154;15.094;2023-06-05T01:04:20;3.03;;;1.50;;
8161;SDS011;16778;48.154;15.094;2023-06-05T01:06:48;2.07;;;1.10;;
8161;SDS011;16778;48.154;15.094;2023-06-05T01:09:16;2.20;;;1.40;;
8161;SDS011;16778;48.154;15.094;2023-06-05T01:11:53;2.33;;;1.40;;
8161;SDS011;16778;48.154;15.094;2023-06-05T01:14:25;1.70;;;1.27;;
8161;SDS011;16778;48.154;15.094;2023-06-05T01:16:55;2.10;;;1.40;;
8161;SDS011;16778;48.154;15.094;2023-06-05T01:19:25;2.73;;;1.40;;
8161;SDS011;16778;48.154;15.094;2023-06-05T01:21:57;1.63;;;1.13;;
8161;SDS011;16778;48.154;15.094;2023-06-05T01:24:23;2.80;;;1.63;;
8161;SDS011;16778;48.154;15.094;2023-06-05T01:29:44;1.53;;;1.43;;
8161;SDS011;16778;48.154;15.094;2023-06-05T01:35:06;2.33;;;1.17;;
8161;SDS011;16778;48.154;15.094;2023-06-05T01:37:33;1.50;;;1.40;;
8161;SDS011;16778;48.154;15.094;2023-06-05T01:40:01;1.97;;;1.27;;
8161;SDS011;16778;48.154;15.094;2023-06-05T01:42:31;1.93;;;1.50;;
8161;SDS011;16778;48.154;15.094;2023-06-05T01:44:57;2.00;;;1.10;;
8161;SDS011;16778;48.154;15.094;2023-06-05T01:47:22;2.23;;;1.53;;
8161;SDS011;16778;48.154;15.094;2023-06-05T01:49:49;2.00;;;1.20;;
8161;SDS011;16778;48.154;15.094;2023-06-05T01:52:15;1.70;;;1.17;;
8161;SDS011;16778;48.154;15.094;2023-06-05T01:54:41;2.37;;;1.67;;
8161;SDS011;16778;48.154;15.094;2023-06-05T01:57:07;1.73;;;1.40;;
8161;SDS011;16778;48.154;15.094;2023-06-05T01:59:34;1.77;;;1.37;;
8161;SDS011;16778;48.154;15.094;2023-06-05T02:02:00;4.17;;;1.47;;
8161;SDS011;16778;48.154;15.094;2023-06-05T02:04:26;2.13;;;1.50;;
8161;SDS011;16778;48.154;15.094;2023-06-05T02:06:54;2.47;;;1.30;;
8161;SDS011;16778;48.154;15.094;2023-06-05T02:09:20;2.83;;;1.60;;
8161;SDS011;16778;48.154;15.094;2023-06-05T02:11:45;2.23;;;1.50;;
8161;SDS011;16778;48.154;15.094;2023-06-05T02:14:12;2.10;;;1.80;;
8161;SDS011;16778;48.154;15.094;2023-06-05T02:16:39;2.90;;;1.47;;
8161;SDS011;16778;48.154;15.094;2023-06-05T02:19:05;1.63;;;1.20;;
8161;SDS011;16778;48.154;15.094;2023-06-05T02:21:31;2.27;;;1.63;;
8161;SDS011;16778;48.154;15.094;2023-06-05T02:23:58;2.23;;;1.50;;
8161;SDS011;16778;48.154;15.094;2023-06-05T02:26:24;1.47;;;1.27;;
8161;SDS011;16778;48.154;15.094;2023-06-05T02:28:50;1.63;;;1.20;;
8161;SDS011;16778;48.154;15.094;2023-06-05T02:31:19;4.00;;;2.07;;
8161;SDS011;16778;48.154;15.094;2023-06-05T02:33:52;2.00;;;1.60;;
8161;SDS011;16778;48.154;15.094;2023-06-05T02:36:19;2.67;;;1.43;;
8161;SDS011;16778;48.154;15.094;2023-06-05T02:38:44;2.27;;;1.47;;
8161;SDS011;16778;48.154;15.094;2023-06-05T02:41:10;2.43;;;1.67;;
8161;SDS011;16778;48.154;15.094;2023-06-05T02:43:36;2.90;;;1.47;;
8161;SDS011;16778;48.154;15.094;2023-06-05T02:46:02;2.53;;;1.70;;
8161;SDS011;16778;48.154;15.094;2023-06-05T02:48:27;1.50;;;1.30;;
8161;SDS011;16778;48.154;15.094;2023-06-05T02:50:53;1.97;;;1.67;;
8161;SDS011;16778;48.154;15.094;2023-06-05T02:53:18;2.40;;;1.83;;
8161;SDS011;16778;48.154;15.094;2023-06-05T02:55:45;1.70;;;1.47;;
8161;SDS011;16778;48.154;15.094;2023-06-05T02:58:11;2.40;;;1.50;;
8161;SDS011;16778;48.154;15.094;2023-06-05T03:00:38;1.40;;;1.30;;
8161;SDS011;16778;48.154;15.094;2023-06-05T03:03:04;3.07;;;1.63;;
8161;SDS011;16778;48.154;15.094;2023-06-05T03:05:32;2.60;;;1.57;;
8161;SDS011;16778;48.154;15.094;2023-06-05T03:07:58;2.47;;;1.67;;
8161;SDS011;16778;48.154;15.094;2023-06-05T03:10:26;2.27;;;1.63;;
8161;SDS011;16778;48.154;15.094;2023-06-05T03:12:52;1.57;;;1.37;;
8161;SDS011;16778;48.154;15.094;2023-06-05T03:15:18;3.00;;;2.07;;
8161;SDS011;16778;48.154;15.094;2023-06-05T03:17:44;2.03;;;1.57;;
8161;SDS011;16778;48.154;15.094;2023-06-05T03:20:10;1.47;;;1.27;;
8161;SDS011;16778;48.154;15.094;2023-06-05T03:22:37;1.73;;;1.60;;
8161;SDS011;16778;48.154;15.094;2023-06-05T03:25:03;2.37;;;1.60;;
8161;SDS011;16778;48.154;15.094;2023-06-05T03:27:30;1.57;;;1.47;;
8161;SDS011;16778;48.154;15.094;2023-06-05T03:29:56;2.40;;;1.70;;
8161;SDS011;16778;48.154;15.094;2023-06-05T03:32:23;2.20;;;1.83;;
8161;SDS011;16778;48.154;15.094;2023-06-05T03:34:49;1.73;;;1.60;;
8161;SDS011;16778;48.154;15.094;2023-06-05T03:37:15;2.47;;;1.87;;
8161;SDS011;16778;48.154;15.094;2023-06-05T03:39:41;2.47;;;1.63;;
8161;SDS011;16778;48.154;15.094;2023-06-05T03:42:07;2.90;;;2.03;;
8161;SDS011;16778;48.154;15.094;2023-06-05T03:44:34;2.67;;;2.07;;
8161;SDS011;16778;48.154;15.094;2023-06-05T03:47:00;3.03;;;2.07;;
8161;SDS011;16778;48.154;15.094;2023-06-05T03:49:26;2.77;;;2.10;;
8161;SDS011;16778;48.154;15.094;2023-06-05T03:51:53;3.50;;;2.30;;
8161;SDS011;16778;48.154;15.094;2023-06-05T03:54:25;3.27;;;2.27;;
8161;SDS011;16778;48.154;15.094;2023-06-05T03:56:57;2.97;;;2.33;;
8161;SDS011;16778;48.154;15.094;2023-06-05T03:59:25;2.27;;;1.97;;
8161;SDS011;16778;48.154;15.094;2023-06-05T04:01:54;2.80;;;2.17;;
8161;SDS011;16778;48.154;15.094;2023-06-05T04:04:20;2.30;;;1.90;;
8161;SDS011;16778;48.154;15.094;2023-06-05T04:06:47;3.87;;;2.57;;
8161;SDS011;16778;48.154;15.094;2023-06-05T04:09:13;3.03;;;2.13;;
8161;SDS011;16778;48.154;15.094;2023-06-05T04:11:42;3.53;;;2.50;;
8161;SDS011;16778;48.154;15.094;2023-06-05T04:14:09;5.00;;;2.97;;
8161;SDS011;16778;48.154;15.094;2023-06-05T04:16:35;3.87;;;2.60;;
8161;SDS011;16778;48.154;15.094;2023-06-05T04:19:06;3.63;;;2.60;;
8161;SDS011;16778;48.154;15.094;2023-06-05T04:21:35;4.43;;;2.77;;
8161;SDS011;16778;48.154;15.094;2023-06-05T04:24:04;2.77;;;2.00;;
8161;SDS011;16778;48.154;15.094;2023-06-05T04:26:38;3.00;;;2.50;;
8161;SDS011;16778;48.154;15.094;2023-06-05T04:29:08;3.60;;;2.83;;
8161;SDS011;16778;48.154;15.094;2023-06-05T04:31:44;4.63;;;3.10;;
8161;SDS011;16778;48.154;15.094;2023-06-05T04:34:12;4.77;;;2.50;;
8161;SDS011;16778;48.154;15.094;2023-06-05T04:36:38;6.77;;;3.23;;
8161;SDS011;16778;48.154;15.094;2023-06-05T04:39:05;4.37;;;3.10;;
8161;SDS011;16778;48.154;15.094;2023-06-05T04:41:36;4.30;;;2.83;;
8161;SDS011;16778;48.154;15.094;2023-06-05T04:44:02;7.07;;;2.77;;
8161;SDS011;16778;48.154;15.094;2023-06-05T04:46:28;4.03;;;2.73;;
8161;SDS011;16778;48.154;15.094;2023-06-05T04:48:53;3.80;;;2.67;;
8161;SDS011;16778;48.154;15.094;2023-06-05T04:51:22;3.13;;;2.40;;
8161;SDS011;16778;48.154;15.094;2023-06-05T04:53:48;3.43;;;3.07;;
8161;SDS011;16778;48.154;15.094;2023-06-05T04:56:18;5.50;;;2.50;;
8161;SDS011;16778;48.154;15.094;2023-06-05T04:58:46;4.33;;;3.10;;
8161;SDS011;16778;48.154;15.094;2023-06-05T05:01:12;4.00;;;2.93;;
8161;SDS011;16778;48.154;15.094;2023-06-05T05:03:38;5.80;;;2.77;;
8161;SDS011;16778;48.154;15.094;2023-06-05T05:06:07;3.70;;;2.70;;
8161;SDS011;16778;48.154;15.094;2023-06-05T05:08:34;5.33;;;2.63;;
8161;SDS011;16778;48.154;15.094;2023-06-05T05:11:01;3.80;;;2.67;;
8161;SDS011;16778;48.154;15.094;2023-06-05T05:13:27;4.83;;;2.87;;
8161;SDS011;16778;48.154;15.094;2023-06-05T05:15:53;4.60;;;2.40;;
8161;SDS011;16778;48.154;15.094;2023-06-05T05:18:19;2.97;;;2.23;;
8161;SDS011;16778;48.154;15.094;2023-06-05T05:20:45;3.97;;;2.60;;
8161;SDS011;16778;48.154;15.094;2023-06-05T05:23:11;5.00;;;2.73;;
8161;SDS011;16778;48.154;15.094;2023-06-05T05:25:39;4.67;;;3.07;;
8161;SDS011;16778;48.154;15.094;2023-06-05T05:28:05;2.80;;;2.50;;
8161;SDS011;16778;48.154;15.094;2023-06-05T05:30:31;4.13;;;2.87;;
8161;SDS011;16778;48.154;15.094;2023-06-05T05:32:57;4.27;;;2.80;;
8161;SDS011;16778;48.154;15.094;2023-06-05T05:35:23;3.60;;;2.87;;
8161;SDS011;16778;48.154;15.094;2023-06-05T05:37:49;3.47;;;2.47;;
8161;SDS011;16778;48.154;15.094;2023-06-05T05:40:14;4.07;;;2.63;;
8161;SDS011;16778;48.154;15.094;2023-06-05T05:42:41;2.80;;;2.50;;
8161;SDS011;16778;48.154;15.094;2023-06-05T05:45:06;2.97;;;2.60;;
8161;SDS011;16778;48.154;15.094;2023-06-05T05:47:33;4.03;;;2.80;;
8161;SDS011;16778;48.154;15.094;2023-06-05T05:49:59;2.87;;;2.20;;
8161;SDS011;16778;48.154;15.094;2023-06-05T05:52:25;3.50;;;3.00;;
8161;SDS011;16778;48.154;15.094;2023-06-05T05:54:50;2.87;;;2.20;;
8161;SDS011;16778;48.154;15.094;2023-06-05T05:57:17;3.60;;;3.10;;
8161;SDS011;16778;48.154;15.094;2023-06-05T05:59:42;3.30;;;2.20;;
8161;SDS011;16778;48.154;15.094;2023-06-05T06:02:10;2.97;;;2.47;;
8161;SDS011;16778;48.154;15.094;2023-06-05T06:04:38;3.67;;;2.27;;
8161;SDS011;16778;48.154;15.094;2023-06-05T06:07:04;3.07;;;2.60;;
8161;SDS011;16778;48.154;15.094;2023-06-05T06:09:31;2.97;;;2.63;;
8161;SDS011;16778;48.154;15.094;2023-06-05T06:11:56;3.57;;;2.60;;
8161;SDS011;16778;48.154;15.094;2023-06-05T06:14:23;4.23;;;2.53;;
8161;SDS011;16778;48.154;15.094;2023-06-05T06:16:49;3.03;;;2.37;;
8161;SDS011;16778;48.154;15.094;2023-06-05T06:19:16;3.20;;;2.37;;
8161;SDS011;16778;48.154;15.094;2023-06-05T06:21:42;2.50;;;2.23;;
8161;SDS011;16778;48.154;15.094;2023-06-05T06:24:08;3.50;;;2.27;;
8161;SDS011;16778;48.154;15.094;2023-06-05T06:26:34;2.50;;;2.17;;
8161;SDS011;16778;48.154;15.094;2023-06-05T06:29:03;4.90;;;2.57;;
8161;SDS011;16778;48.154;15.094;2023-06-05T06:31:28;3.97;;;2.67;;
8161;SDS011;16778;48.154;15.094;2023-06-05T06:33:54;2.70;;;2.23;;
8161;SDS011;16778;48.154;15.094;2023-06-05T06:36:20;3.67;;;2.27;;
8161;SDS011;16778;48.154;15.094;2023-06-05T06:38:46;3.20;;;2.90;;
8161;SDS011;16778;48.154;15.094;2023-06-05T06:41:11;2.80;;;2.50;;
8161;SDS011;16778;48.154;15.094;2023-06-05T06:43:37;4.23;;;2.57;;
8161;SDS011;16778;48.154;15.094;2023-06-05T06:46:03;5.57;;;2.50;;
8161;SDS011;16778;48.154;15.094;2023-06-05T06:48:29;4.30;;;2.60;;
8161;SDS011;16778;48.154;15.094;2023-06-05T06:50:55;2.60;;;2.30;;
8161;SDS011;16778;48.154;15.094;2023-06-05T06:53:23;3.03;;;2.17;;
8161;SDS011;16778;48.154;15.094;2023-06-05T06:55:49;2.70;;;2.40;;
8161;SDS011;16778;48.154;15.094;2023-06-05T06:58:15;3.20;;;2.77;;
8161;SDS011;16778;48.154;15.094;2023-06-05T07:00:41;2.47;;;2.10;;
8161;SDS011;16778;48.154;15.094;2023-06-05T07:03:07;2.80;;;2.47;;
8161;SDS011;16778;48.154;15.094;2023-06-05T07:05:33;4.10;;;2.80;;
8161;SDS011;16778;48.154;15.094;2023-06-05T07:07:59;4.37;;;2.37;;
8161;SDS011;16778;48.154;15.094;2023-06-05T07:10:26;2.57;;;2.00;;
8161;SDS011;16778;48.154;15.094;2023-06-05T07:12:55;4.47;;;2.90;;
8161;SDS011;16778;48.154;15.094;2023-06-05T07:15:20;3.77;;;2.10;;
8161;SDS011;16778;48.154;15.094;2023-06-05T07:17:46;3.80;;;2.47;;
8161;SDS011;16778;48.154;15.094;2023-06-05T07:20:12;2.23;;;1.90;;
8161;SDS011;16778;48.154;15.094;2023-06-05T07:22:41;2.83;;;2.13;;
8161;SDS011;16778;48.154;15.094;2023-06-05T07:25:07;2.13;;;1.87;;
8161;SDS011;16778;48.154;15.094;2023-06-05T07:27:34;4.87;;;2.37;;
8161;SDS011;16778;48.154;15.094;2023-06-05T07:30:00;2.70;;;2.10;;
8161;SDS011;16778;48.154;15.094;2023-06-05T07:32:27;3.77;;;1.87;;
8161;SDS011;16778;48.154;15.094;2023-06-05T07:34:52;2.30;;;2.10;;
8161;SDS011;16778;48.154;15.094;2023-06-05T07:37:18;2.43;;;2.10;;
8161;SDS011;16778;48.154;15.094;2023-06-05T07:39:43;3.43;;;2.37;;
8161;SDS011;16778;48.154;15.094;2023-06-05T07:42:09;3.37;;;2.40;;
8161;SDS011;16778;48.154;15.094;2023-06-05T07:44:35;3.80;;;2.30;;
8161;SDS011;16778;48.154;15.094;2023-06-05T07:47:01;2.70;;;2.27;;
8161;SDS011;16778;48.154;15.094;2023-06-05T07:49:29;3.07;;;2.20;;
8161;SDS011;16778;48.154;15.094;2023-06-05T07:51:56;2.67;;;2.10;;
8161;SDS011;16778;48.154;15.094;2023-06-05T07:54:22;2.37;;;2.10;;
8161;SDS011;16778;48.154;15.094;2023-06-05T07:56:49;2.37;;;2.17;;
8161;SDS011;16778;48.154;15.094;2023-06-05T07:59:15;2.83;;;2.07;;
8161;SDS011;16778;48.154;15.094;2023-06-05T08:01:42;4.87;;;2.50;;
8161;SDS011;16778;48.154;15.094;2023-06-05T08:04:10;2.20;;;1.97;;
8161;SDS011;16778;48.154;15.094;2023-06-05T08:06:36;2.27;;;2.00;;
8161;SDS011;16778;48.154;15.094;2023-06-05T08:09:05;2.30;;;2.00;;
8161;SDS011;16778;48.154;15.094;2023-06-05T08:11:33;2.20;;;2.00;;
8161;SDS011;16778;48.154;15.094;2023-06-05T08:13:59;2.67;;;1.73;;
8161;SDS011;16778;48.154;15.094;2023-06-05T08:16:24;3.47;;;2.10;;
8161;SDS011;16778;48.154;15.094;2023-06-05T08:18:50;2.30;;;1.97;;
8161;SDS011;16778;48.154;15.094;2023-06-05T08:21:15;2.53;;;1.83;;
8161;SDS011;16778;48.154;15.094;2023-06-05T08:23:42;3.83;;;1.63;;
8161;SDS011;16778;48.154;15.094;2023-06-05T08:26:07;5.80;;;1.87;;
8161;SDS011;16778;48.154;15.094;2023-06-05T08:28:39;3.70;;;2.07;;
8161;SDS011;16778;48.154;15.094;2023-06-05T08:31:08;2.30;;;1.53;;
8161;SDS011;16778;48.154;15.094;2023-06-05T08:33:34;3.10;;;1.97;;
8161;SDS011;16778;48.154;15.094;2023-06-05T08:36:00;2.40;;;2.07;;
8161;SDS011;16778;48.154;15.094;2023-06-05T08:38:27;2.33;;;1.73;;
8161;SDS011;16778;48.154;15.094;2023-06-05T08:40:59;3.07;;;1.70;;
8161;SDS011;16778;48.154;15.094;2023-06-05T08:43:27;2.43;;;1.60;;
8161;SDS011;16778;48.154;15.094;2023-06-05T08:45:53;2.77;;;1.73;;
8161;SDS011;16778;48.154;15.094;2023-06-05T08:48:20;2.97;;;1.87;;
8161;SDS011;16778;48.154;15.094;2023-06-05T08:50:47;2.03;;;1.70;;
8161;SDS011;16778;48.154;15.094;2023-06-05T08:53:13;3.40;;;1.80;;
8161;SDS011;16778;48.154;15.094;2023-06-05T08:55:41;2.73;;;1.47;;
8161;SDS011;16778;48.154;15.094;2023-06-05T08:58:10;3.20;;;1.70;;
8161;SDS011;16778;48.154;15.094;2023-06-05T09:00:38;3.20;;;2.17;;
8161;SDS011;16778;48.154;15.094;2023-06-05T09:03:04;2.53;;;2.20;;
8161;SDS011;16778;48.154;15.094;2023-06-05T09:05:31;2.00;;;1.60;;
8161;SDS011;16778;48.154;15.094;2023-06-05T09:07:56;3.27;;;1.87;;
8161;SDS011;16778;48.154;15.094;2023-06-05T09:10:27;1.73;;;1.63;;
8161;SDS011;16778;48.154;15.094;2023-06-05T09:15:23;1.73;;;1.60;;
8161;SDS011;16778;48.154;15.094;2023-06-05T09:18:03;1.90;;;1.70;;
8161;SDS011;16778;48.154;15.094;2023-06-05T09:20:45;2.60;;;1.70;;
8161;SDS011;16778;48.154;15.094;2023-06-05T09:25:49;2.93;;;1.80;;
8161;SDS011;16778;48.154;15.094;2023-06-05T09:28:15;1.53;;;1.43;;
8161;SDS011;16778;48.154;15.094;2023-06-05T09:30:58;1.43;;;1.33;;
8161;SDS011;16778;48.154;15.094;2023-06-05T09:33:25;2.20;;;1.50;;
8161;SDS011;16778;48.154;15.094;2023-06-05T09:36:02;1.63;;;1.50;;
8161;SDS011;16778;48.154;15.094;2023-06-05T09:38:31;1.60;;;1.50;;
8161;SDS011;16778;48.154;15.094;2023-06-05T09:41:01;1.73;;;1.50;;
8161;SDS011;16778;48.154;15.094;2023-06-05T09:43:37;2.70;;;1.80;;
8161;SDS011;16778;48.154;15.094;2023-06-05T09:46:10;2.03;;;1.63;;
8161;SDS011;16778;48.154;15.094;2023-06-05T09:48:36;3.10;;;2.03;;
8161;SDS011;16778;48.154;15.094;2023-06-05T09:51:07;1.53;;;1.37;;
8161;SDS011;16778;48.154;15.094;2023-06-05T09:53:47;2.03;;;1.60;;
8161;SDS011;16778;48.154;15.094;2023-06-05T09:56:17;2.07;;;1.80;;
8161;SDS011;16778;48.154;15.094;2023-06-05T09:58:47;1.57;;;1.47;;
8161;SDS011;16778;48.154;15.094;2023-06-05T10:01:17;3.13;;;2.00;;
8161;SDS011;16778;48.154;15.094;2023-06-05T10:03:50;3.43;;;2.00;;
8161;SDS011;16778;48.154;15.094;2023-06-05T10:06:26;2.57;;;1.53;;
8161;SDS011;16778;48.154;15.094;2023-06-05T10:08:53;1.60;;;1.40;;
8161;SDS011;16778;48.154;15.094;2023-06-05T10:11:21;1.80;;;1.60;;
8161;SDS011;16778;48.154;15.094;2023-06-05T10:13:48;2.03;;;1.47;;
8161;SDS011;16778;48.154;15.094;2023-06-05T10:16:16;2.03;;;1.67;;
8161;SDS011;16778;48.154;15.094;2023-06-05T10:18:45;5.87;;;1.70;;
8161;SDS011;16778;48.154;15.094;2023-06-05T10:21:12;2.10;;;1.77;;
8161;SDS011;16778;48.154;15.094;2023-06-05T10:23:40;2.33;;;1.43;;
8161;SDS011;16778;48.154;15.094;2023-06-05T10:26:10;2.50;;;1.87;;
8161;SDS011;16778;48.154;15.094;2023-06-05T10:29:05;2.23;;;1.53;;
8161;SDS011;16778;48.154;15.094;2023-06-05T10:40:00;2.27;;;1.83;;
8161;SDS011;16778;48.154;15.094;2023-06-05T10:42:26;3.33;;;1.60;;
8161;SDS011;16778;48.154;15.094;2023-06-05T10:44:53;2.00;;;1.70;;
8161;SDS011;16778;48.154;15.094;2023-06-05T10:52:43;2.10;;;1.90;;
8161;SDS011;16778;48.154;15.094;2023-06-05T10:55:13;2.13;;;1.83;;
8161;SDS011;16778;48.154;15.094;2023-06-05T11:00:31;2.40;;;1.73;;
8161;SDS011;16778;48.154;15.094;2023-06-05T11:02:57;2.33;;;1.73;;
8161;SDS011;16778;48.154;15.094;2023-06-05T11:05:23;2.23;;;2.03;;
8161;SDS011;16778;48.154;15.094;2023-06-05T11:08:09;2.10;;;1.80;;
8161;SDS011;16778;48.154;15.094;2023-06-05T11:11:03;1.90;;;1.70;;
8161;SDS011;16778;48.154;15.094;2023-06-05T11:18:54;3.53;;;2.10;;
8161;SDS011;16778;48.154;15.094;2023-06-05T11:21:20;2.07;;;1.87;;
8161;SDS011;16778;48.154;15.094;2023-06-05T11:26:41;1.93;;;1.73;;
8161;SDS011;16778;48.154;15.094;2023-06-05T11:29:11;2.60;;;1.90;;
8161;SDS011;16778;48.154;15.094;2023-06-05T11:31:38;1.73;;;1.53;;
8161;SDS011;16778;48.154;15.094;2023-06-05T11:34:10;4.03;;;1.70;;
8161;SDS011;16778;48.154;15.094;2023-06-05T11:36:37;1.63;;;1.53;;
8161;SDS011;16778;48.154;15.094;2023-06-05T11:39:03;2.47;;;2.03;;
8161;SDS011;16778;48.154;15.094;2023-06-05T11:41:28;3.27;;;2.00;;
8161;SDS011;16778;48.154;15.094;2023-06-05T11:43:54;2.40;;;1.97;;
8161;SDS011;16778;48.154;15.094;2023-06-05T11:46:35;3.40;;;2.10;;
8161;SDS011;16778;48.154;15.094;2023-06-05T11:49:02;2.37;;;2.00;;
8161;SDS011;16778;48.154;15.094;2023-06-05T11:51:32;2.00;;;1.73;;
8161;SDS011;16778;48.154;15.094;2023-06-05T11:54:01;3.07;;;1.73;;
8161;SDS011;16778;48.154;15.094;2023-06-05T11:56:27;3.67;;;2.30;;
8161;SDS011;16778;48.154;15.094;2023-06-05T11:58:54;5.00;;;2.50;;
8161;SDS011;16778;48.154;15.094;2023-06-05T12:01:20;2.80;;;1.97;;
8161;SDS011;16778;48.154;15.094;2023-06-05T12:04:03;5.30;;;1.80;;
8161;SDS011;16778;48.154;15.094;2023-06-05T12:06:29;2.30;;;1.73;;
8161;SDS011;16778;48.154;15.094;2023-06-05T12:09:06;4.23;;;2.30;;
8161;SDS011;16778;48.154;15.094;2023-06-05T12:11:35;2.37;;;1.80;;
8161;SDS011;16778;48.154;15.094;2023-06-05T12:14:02;2.73;;;2.20;;
8161;SDS011;16778;48.154;15.094;2023-06-05T12:16:32;2.03;;;1.80;;
8161;SDS011;16778;48.154;15.094;2023-06-05T12:18:58;2.50;;;1.90;;
8161;SDS011;16778;48.154;15.094;2023-06-05T12:21:25;1.67;;;1.57;;
8161;SDS011;16778;48.154;15.094;2023-06-05T12:24:00;3.13;;;1.73;;
8161;SDS011;16778;48.154;15.094;2023-06-05T12:26:26;2.37;;;2.10;;
8161;SDS011;16778;48.154;15.094;2023-06-05T12:29:03;3.00;;;2.30;;
8161;SDS011;16778;48.154;15.094;2023-06-05T12:31:34;2.07;;;1.70;;
8161;SDS011;16778;48.154;15.094;2023-06-05T12:34:01;2.07;;;1.80;;
8161;SDS011;16778;48.154;15.094;2023-06-05T12:36:27;2.17;;;1.77;;
8161;SDS011;16778;48.154;15.094;2023-06-05T12:38:54;4.43;;;2.07;;
8161;SDS011;16778;48.154;15.094;2023-06-05T12:41:19;2.80;;;1.90;;
8161;SDS011;16778;48.154;15.094;2023-06-05T12:43:45;2.37;;;1.77;;
8161;SDS011;16778;48.154;15.094;2023-06-05T12:46:11;3.27;;;1.57;;
8161;SDS011;16778;48.154;15.094;2023-06-05T12:48:38;2.07;;;1.70;;
8161;SDS011;16778;48.154;15.094;2023-06-05T12:51:05;2.27;;;1.93;;
8161;SDS011;16778;48.154;15.094;2023-06-05T12:53:30;3.10;;;2.20;;
8161;SDS011;16778;48.154;15.094;2023-06-05T12:55:56;3.20;;;2.40;;
8161;SDS011;16778;48.154;15.094;2023-06-05T12:58:21;2.53;;;2.20;;
8161;SDS011;16778;48.154;15.094;2023-06-05T13:00:47;2.37;;;1.80;;
8161;SDS011;16778;48.154;15.094;2023-06-05T13:03:13;2.63;;;1.80;;
8161;SDS011;16778;48.154;15.094;2023-06-05T13:05:39;2.80;;;1.77;;
8161;SDS011;16778;48.154;15.094;2023-06-05T13:08:04;3.87;;;1.90;;
8161;SDS011;16778;48.154;15.094;2023-06-05T13:10:31;2.87;;;1.60;;
8161;SDS011;16778;48.154;15.094;2023-06-05T13:12:56;2.93;;;1.70;;
8161;SDS011;16778;48.154;15.094;2023-06-05T13:15:22;2.13;;;1.73;;
8161;SDS011;16778;48.154;15.094;2023-06-05T13:17:48;2.10;;;1.70;;
8161;SDS011;16778;48.154;15.094;2023-06-05T13:20:14;2.03;;;1.83;;
8161;SDS011;16778;48.154;15.094;2023-06-05T13:22:40;2.63;;;1.93;;
8161;SDS011;16778;48.154;15.094;2023-06-05T13:25:06;2.30;;;1.97;;
8161;SDS011;16778;48.154;15.094;2023-06-05T13:27:32;5.73;;;1.67;;
8161;SDS011;16778;48.154;15.094;2023-06-05T13:29:58;1.87;;;1.73;;
8161;SDS011;16778;48.154;15.094;2023-06-05T13:32:24;1.97;;;1.60;;
8161;SDS011;16778;48.154;15.094;2023-06-05T13:34:50;3.60;;;2.17;;
8161;SDS011;16778;48.154;15.094;2023-06-05T13:37:16;1.80;;;1.67;;
8161;SDS011;16778;48.154;15.094;2023-06-05T13:39:41;2.10;;;1.83;;
8161;SDS011;16778;48.154;15.094;2023-06-05T13:42:07;2.10;;;1.90;;
8161;SDS011;16778;48.154;15.094;2023-06-05T13:44:33;2.97;;;2.00;;
8161;SDS011;16778;48.154;15.094;2023-06-05T13:46:59;3.33;;;2.00;;
8161;SDS011;16778;48.154;15.094;2023-06-05T13:49:28;2.50;;;2.03;;
8161;SDS011;16778;48.154;15.094;2023-06-05T13:51:54;2.37;;;2.17;;
8161;SDS011;16778;48.154;15.094;2023-06-05T13:54:20;3.10;;;1.67;;
8161;SDS011;16778;48.154;15.094;2023-06-05T13:56:45;2.90;;;1.47;;
8161;SDS011;16778;48.154;15.094;2023-06-05T13:59:11;2.93;;;1.67;;
8161;SDS011;16778;48.154;15.094;2023-06-05T14:01:37;2.07;;;1.50;;
8161;SDS011;16778;48.154;15.094;2023-06-05T14:04:02;2.73;;;2.07;;
8161;SDS011;16778;48.154;15.094;2023-06-05T14:06:28;2.20;;;1.90;;
8161;SDS011;16778;48.154;15.094;2023-06-05T14:08:54;2.87;;;1.60;;
8161;SDS011;16778;48.154;15.094;2023-06-05T14:11:19;2.30;;;2.10;;
8161;SDS011;16778;48.154;15.094;2023-06-05T14:13:45;2.30;;;2.00;;
8161;SDS011;16778;48.154;15.094;2023-06-05T14:16:11;2.23;;;1.80;;
8161;SDS011;16778;48.154;15.094;2023-06-05T14:18:37;2.17;;;1.90;;
8161;SDS011;16778;48.154;15.094;2023-06-05T14:21:03;1.90;;;1.70;;
8161;SDS011;16778;48.154;15.094;2023-06-05T14:23:32;2.10;;;1.83;;
8161;SDS011;16778;48.154;15.094;2023-06-05T14:25:57;2.87;;;1.83;;
8161;SDS011;16778;48.154;15.094;2023-06-05T14:28:23;2.27;;;1.73;;
8161;SDS011;16778;48.154;15.094;2023-06-05T14:30:49;1.70;;;1.60;;
8161;SDS011;16778;48.154;15.094;2023-06-05T14:33:15;2.30;;;1.87;;
8161;SDS011;16778;48.154;15.094;2023-06-05T14:35:44;1.90;;;1.63;;
8161;SDS011;16778;48.154;15.094;2023-06-05T14:38:09;2.67;;;1.90;;
8161;SDS011;16778;48.154;15.094;2023-06-05T14:40:38;3.27;;;1.70;;
8161;SDS011;16778;48.154;15.094;2023-06-05T14:43:04;2.20;;;1.87;;
8161;SDS011;16778;48.154;15.094;2023-06-05T14:45:30;3.97;;;1.80;;
8161;SDS011;16778;48.154;15.094;2023-06-05T14:47:56;1.70;;;1.47;;
8161;SDS011;16778;48.154;15.094;2023-06-05T14:50:22;1.90;;;1.80;;
8161;SDS011;16778;48.154;15.094;2023-06-05T14:52:48;2.30;;;1.70;;
8161;SDS011;16778;48.154;15.094;2023-06-05T14:55:13;2.57;;;1.97;;
8161;SDS011;16778;48.154;15.094;2023-06-05T14:57:39;2.70;;;1.80;;
8161;SDS011;16778;48.154;15.094;2023-06-05T15:00:05;2.27;;;2.00;;
8161;SDS011;16778;48.154;15.094;2023-06-05T15:02:32;3.27;;;2.27;;
8161;SDS011;16778;48.154;15.094;2023-06-05T15:04:58;3.53;;;2.17;;
8161;SDS011;16778;48.154;15.094;2023-06-05T15:07:23;2.30;;;1.73;;
8161;SDS011;16778;48.154;15.094;2023-06-05T15:09:50;2.90;;;2.00;;
8161;SDS011;16778;48.154;15.094;2023-06-05T15:12:16;2.53;;;2.07;;
8161;SDS011;16778;48.154;15.094;2023-06-05T15:14:44;2.37;;;1.67;;
8161;SDS011;16778;48.154;15.094;2023-06-05T15:17:10;4.30;;;2.00;;
8161;SDS011;16778;48.154;15.094;2023-06-05T15:19:36;1.70;;;1.53;;
8161;SDS011;16778;48.154;15.094;2023-06-05T15:22:01;2.87;;;1.93;;
8161;SDS011;16778;48.154;15.094;2023-06-05T15:24:27;2.23;;;1.67;;